Time;durP1;ratioP1;P1;durP2;ratioP2;P2;SDS_P1;SDS_P2;PMS_P1;PMS_P2;Temp;Humidity;BMP_temperature;BMP_pressure;BME280_temperature;BME280_humidity;BME280_pressure;Samples;Min_cycle;Max_cycle;Signal;HPM_P1;HPM_P2
2023/06/18 00:01:02;;;;;;;16.60;14.88;;;22.20;56.80;;;;;;4982420;28;20294;-88
2023/06/18 00:03:28;;;;;;;15.73;14.13;;;22.20;57.20;;;;;;4983332;28;20635;-87
2023/06/18 00:05:54;;;;;;;19.73;15.43;;;22.00;57.30;;;;;;4979073;28;20284;-88
2023/06/18 00:08:20;;;;;;;15.75;14.60;;;22.00;57.50;;;;;;4982359;28;20256;-87
2023/06/18 00:10:46;;;;;;;15.23;13.98;;;21.80;58.20;;;;;;4980921;28;20210;-87
2023/06/18 00:13:12;;;;;;;15.27;13.98;;;21.80;58.60;;;;;;4979700;28;20201;-87
2023/06/18 00:15:38;;;;;;;14.50;13.05;;;21.70;58.60;;;;;;4984655;28;20701;-87
2023/06/18 00:18:04;;;;;;;16.38;15.10;;;21.80;58.20;;;;;;4984579;28;20198;-87
2023/06/18 00:20:32;;;;;;;15.32;14.18;;;21.90;57.90;;;;;;4978509;28;20214;-87
2023/06/18 00:22:59;;;;;;;14.57;13.32;;;21.90;58.10;;;;;;4983230;28;20260;-87
2023/06/18 00:25:25;;;;;;;13.52;12.50;;;21.70;58.80;;;;;;4984782;28;20209;-89
2023/06/18 00:27:51;;;;;;;14.85;13.75;;;21.60;59.40;;;;;;4982729;28;20818;-87
2023/06/18 00:30:16;;;;;;;15.25;14.05;;;21.50;59.90;;;;;;4981942;28;20204;-87
2023/06/18 00:32:44;;;;;;;14.10;13.07;;;21.30;60.20;;;;;;4984934;28;20206;-87
2023/06/18 00:35:16;;;;;;;14.65;13.40;;;21.30;60.20;;;;;;4980930;28;20214;-87
2023/06/18 00:37:45;;;;;;;14.50;13.20;;;21.30;60.20;;;;;;4982334;28;20193;-87
2023/06/18 00:40:12;;;;;;;13.63;12.63;;;21.30;60.00;;;;;;4977812;28;20216;-88
2023/06/18 00:42:39;;;;;;;13.90;13.00;;;21.00;61.30;;;;;;4977502;28;20539;-88
2023/06/18 00:45:08;;;;;;;15.00;13.52;;;20.70;62.30;;;;;;4977082;28;20189;-87
2023/06/18 00:47:36;;;;;;;15.05;13.50;;;20.70;63.70;;;;;;4980051;28;22018;-86
2023/06/18 00:50:05;;;;;;;18.45;16.90;;;20.60;64.50;;;;;;4977829;28;20458;-88
2023/06/18 00:52:44;;;;;;;14.45;13.15;;;20.60;64.40;;;;;;4977202;28;20783;-87
2023/06/18 00:55:16;;;;;;;15.25;13.90;;;20.40;65.00;;;;;;4980607;28;20368;-88
2023/06/18 00:57:49;;;;;;;14.43;13.32;;;20.50;65.20;;;;;;4987683;28;20186;-88
2023/06/18 01:00:21;;;;;;;14.68;13.38;;;20.50;64.40;;;;;;4985393;28;20192;-88
2023/06/18 01:02:53;;;;;;;14.50;13.30;;;20.60;64.00;;;;;;4984524;28;20709;-86
2023/06/18 01:05:19;;;;;;;13.50;12.60;;;20.60;63.50;;;;;;4986420;28;20202;-88
2023/06/18 01:07:49;;;;;;;14.25;13.25;;;20.70;64.40;;;;;;4988267;28;20277;-88
2023/06/18 01:10:15;;;;;;;13.27;12.40;;;20.70;63.70;;;;;;4983913;28;20200;-90
2023/06/18 01:12:48;;;;;;;14.10;13.10;;;20.70;62.70;;;;;;4983736;28;20222;-87
2023/06/18 01:15:15;;;;;;;15.00;13.80;;;20.70;63.10;;;;;;4986176;28;20218;-89
2023/06/18 01:17:46;;;;;;;14.45;13.45;;;20.60;62.40;;;;;;4989105;28;20204;-86
2023/06/18 01:20:12;;;;;;;14.07;13.07;;;20.50;62.30;;;;;;4982436;28;20249;-88
2023/06/18 01:22:42;;;;;;;14.80;13.50;;;20.50;62.00;;;;;;4986903;28;20271;-86
2023/06/18 01:25:09;;;;;;;14.68;13.50;;;20.60;61.90;;;;;;4987746;28;20194;-87
2023/06/18 01:27:43;;;;;;;15.38;14.38;;;20.50;62.10;;;;;;4984236;28;20193;-87
2023/06/18 01:30:13;;;;;;;14.70;13.35;;;20.40;62.00;;;;;;4979941;28;20616;-88
2023/06/18 01:32:40;;;;;;;13.68;12.50;;;20.40;63.10;;;;;;4987220;28;20256;-88
2023/06/18 01:35:14;;;;;;;13.70;12.57;;;20.20;64.10;;;;;;4981041;28;20205;-87
2023/06/18 01:37:59;;;;;;;14.38;13.38;;;20.10;63.70;;;;;;4976541;28;20268;-88
2023/06/18 01:40:25;;;;;;;13.30;12.38;;;20.00;64.10;;;;;;4970351;28;20196;-87
2023/06/18 01:43:35;;;;;;;14.02;13.05;;;20.00;64.30;;;;;;4976177;28;20206;-88
2023/06/18 01:46:10;;;;;;;14.23;13.23;;;20.00;63.80;;;;;;4962215;28;20202;-87
2023/06/18 01:48:41;;;;;;;14.20;13.20;;;20.00;63.80;;;;;;4978518;28;20192;-88
2023/06/18 01:51:07;;;;;;;14.35;13.25;;;20.00;64.10;;;;;;4973984;28;20188;-87
2023/06/18 01:53:35;;;;;;;14.18;13.18;;;19.90;64.40;;;;;;4975716;28;21160;-88
2023/06/18 01:56:02;;;;;;;14.07;12.95;;;19.90;64.40;;;;;;4981884;28;20188;-88
2023/06/18 01:58:33;;;;;;;13.95;12.80;;;19.90;64.90;;;;;;4981359;28;20173;-87
2023/06/18 02:00:59;;;;;;;14.40;13.40;;;19.90;64.60;;;;;;4974456;28;20199;-87
2023/06/18 02:03:25;;;;;;;14.75;13.65;;;19.80;64.80;;;;;;4978976;28;20737;-87
2023/06/18 02:05:51;;;;;;;13.57;12.68;;;19.70;65.50;;;;;;4982531;28;20214;-87
2023/06/18 02:08:18;;;;;;;13.63;12.60;;;19.50;65.90;;;;;;4979087;28;20266;-86
2023/06/18 02:10:43;;;;;;;15.57;14.18;;;19.50;66.00;;;;;;4976591;28;20206;-87
2023/06/18 02:13:10;;;;;;;14.80;13.60;;;19.60;65.70;;;;;;4980369;28;20699;-87
2023/06/18 02:15:36;;;;;;;14.25;13.20;;;19.50;66.50;;;;;;4979591;28;20206;-87
2023/06/18 02:18:02;;;;;;;14.20;13.10;;;19.60;65.80;;;;;;4979697;28;20188;-87
2023/06/18 02:20:28;;;;;;;14.27;13.10;;;19.60;65.40;;;;;;4977363;28;20636;-87
2023/06/18 02:22:54;;;;;;;14.10;12.90;;;19.60;65.70;;;;;;4978579;28;20226;-87
2023/06/18 02:25:28;;;;;;;13.75;12.80;;;19.60;65.60;;;;;;4978274;28;20988;-88
2023/06/18 02:27:55;;;;;;;14.15;12.85;;;19.70;64.90;;;;;;4982526;28;20262;-87
2023/06/18 02:30:21;;;;;;;14.60;13.40;;;19.60;64.60;;;;;;4975197;28;20182;-88
2023/06/18 02:32:48;;;;;;;14.25;13.30;;;19.60;64.80;;;;;;4976205;28;20202;-87
2023/06/18 02:35:15;;;;;;;13.88;12.85;;;19.60;65.00;;;;;;4976669;28;20208;-87
2023/06/18 02:37:41;;;;;;;13.98;12.93;;;19.30;66.00;;;;;;4977243;28;20298;-87
2023/06/18 02:40:08;;;;;;;14.38;13.38;;;19.30;65.90;;;;;;4971197;28;20852;-87
2023/06/18 02:42:33;;;;;;;14.52;13.38;;;19.30;66.00;;;;;;4975484;28;20292;-87
2023/06/18 02:45:00;;;;;;;14.70;13.38;;;19.30;66.30;;;;;;4977637;28;20202;-87
2023/06/18 02:47:26;;;;;;;16.85;15.30;;;19.10;66.70;;;;;;4975225;28;20194;-88
2023/06/18 02:49:51;;;;;;;16.08;14.73;;;19.20;68.00;;;;;;4973707;28;20230;-87
2023/06/18 02:52:17;;;;;;;16.05;15.00;;;19.20;68.80;;;;;;4981060;28;20202;-87
2023/06/18 02:54:43;;;;;;;16.40;15.13;;;19.10;69.60;;;;;;4992079;28;20687;-87
2023/06/18 02:57:09;;;;;;;15.77;14.57;;;19.10;70.00;;;;;;4993971;28;20458;-87
2023/06/18 02:59:35;;;;;;;16.85;15.48;;;19.20;69.80;;;;;;4994732;28;20181;-86
2023/06/18 03:02:02;;;;;;;15.73;14.68;;;19.20;69.30;;;;;;4994218;28;20238;-87
2023/06/18 03:04:28;;;;;;;16.45;15.30;;;19.10;70.00;;;;;;4992532;28;20746;-86
2023/06/18 03:06:57;;;;;;;15.40;14.27;;;19.10;69.80;;;;;;4995443;28;20213;-87
2023/06/18 03:09:22;;;;;;;16.42;15.05;;;19.20;68.90;;;;;;4977461;28;20183;-88
2023/06/18 03:11:48;;;;;;;15.93;14.63;;;19.30;68.70;;;;;;4974345;28;20572;-87
2023/06/18 03:14:14;;;;;;;15.25;13.82;;;19.20;68.80;;;;;;4974911;28;20548;-87
2023/06/18 03:16:39;;;;;;;14.90;13.60;;;19.20;68.30;;;;;;4974902;28;20188;-87
2023/06/18 03:19:05;;;;;;;14.40;13.18;;;19.20;67.20;;;;;;4978874;28;20268;-87
2023/06/18 03:21:31;;;;;;;14.07;13.07;;;19.10;67.40;;;;;;4993332;28;20184;-87
2023/06/18 03:23:57;;;;;;;14.32;13.13;;;19.10;67.50;;;;;;4994085;28;20190;-87
2023/06/18 03:26:22;;;;;;;13.80;12.80;;;19.10;67.20;;;;;;4993175;28;20185;-88
2023/06/18 03:28:48;;;;;;;14.23;13.13;;;19.20;67.20;;;;;;4994134;28;20197;-87
2023/06/18 03:31:14;;;;;;;14.13;12.75;;;19.10;67.50;;;;;;4991507;28;20174;-87
2023/06/18 03:33:40;;;;;;;14.93;13.77;;;19.00;67.60;;;;;;4988008;28;20213;-87
2023/06/18 03:36:07;;;;;;;14.20;13.20;;;19.00;68.00;;;;;;4987351;28;20178;-88
2023/06/18 03:38:33;;;;;;;14.35;13.35;;;19.00;68.10;;;;;;4988581;28;20258;-87
2023/06/18 03:40:58;;;;;;;14.60;13.43;;;19.00;67.90;;;;;;4990587;28;20678;-88
2023/06/18 03:43:24;;;;;;;13.50;12.60;;;18.90;68.30;;;;;;4990854;28;20626;-87
2023/06/18 03:45:50;;;;;;;14.18;13.18;;;18.90;68.80;;;;;;4992179;28;20790;-88
2023/06/18 03:48:16;;;;;;;15.00;13.90;;;18.70;69.10;;;;;;4993905;28;20675;-88
2023/06/18 03:50:42;;;;;;;15.40;14.30;;;18.70;69.80;;;;;;4994056;28;20242;-88
2023/06/18 03:53:08;;;;;;;14.52;13.63;;;18.70;70.30;;;;;;4994075;28;20297;-86
2023/06/18 03:55:34;;;;;;;15.95;14.75;;;18.60;70.30;;;;;;4996317;28;20283;-87
2023/06/18 03:58:00;;;;;;;16.60;14.95;;;18.70;70.00;;;;;;4996336;28;20718;-88
2023/06/18 04:00:25;;;;;;;14.85;13.60;;;18.80;70.30;;;;;;4996473;28;20546;-87
2023/06/18 04:02:52;;;;;;;14.95;13.77;;;18.70;70.20;;;;;;4996498;28;20190;-87
2023/06/18 04:05:17;;;;;;;20.88;14.90;;;18.70;70.10;;;;;;4996664;28;20181;-87
2023/06/18 04:07:43;;;;;;;15.18;13.98;;;18.70;70.10;;;;;;4991872;28;20183;-87
2023/06/18 04:10:09;;;;;;;15.25;14.10;;;18.70;70.10;;;;;;4987219;28;20241;-87
2023/06/18 04:12:35;;;;;;;14.98;13.88;;;18.60;70.30;;;;;;4995433;28;20206;-87
2023/06/18 04:15:01;;;;;;;15.20;13.57;;;18.70;70.40;;;;;;4995121;28;20210;-87
2023/06/18 04:17:27;;;;;;;15.55;14.07;;;18.70;70.20;;;;;;4996602;28;20182;-86
2023/06/18 04:19:52;;;;;;;14.93;13.68;;;18.70;70.40;;;;;;4995500;28;20170;-86
2023/06/18 04:22:18;;;;;;;23.13;15.20;;;18.60;70.80;;;;;;4994841;28;20649;-87
2023/06/18 04:24:44;;;;;;;15.90;14.27;;;18.60;70.60;;;;;;4995474;28;20171;-85
2023/06/18 04:27:10;;;;;;;15.25;13.77;;;18.70;70.90;;;;;;4993290;28;20190;-88
2023/06/18 04:29:35;;;;;;;14.93;13.43;;;18.80;70.60;;;;;;4991838;28;20192;-88
2023/06/18 04:32:01;;;;;;;15.60;14.10;;;18.90;70.30;;;;;;4989074;28;20297;-87
2023/06/18 04:34:28;;;;;;;15.38;13.98;;;19.00;69.40;;;;;;4989667;28;20214;-87
2023/06/18 04:36:53;;;;;;;15.45;13.93;;;19.10;69.30;;;;;;4988692;28;20176;-87
2023/06/18 04:39:20;;;;;;;15.98;14.65;;;19.10;69.50;;;;;;4990257;28;20192;-87
2023/06/18 04:41:45;;;;;;;15.20;13.82;;;19.10;69.30;;;;;;4994027;28;20214;-87
2023/06/18 04:44:13;;;;;;;15.20;13.68;;;19.10;69.30;;;;;;4993353;28;20179;-87
2023/06/18 04:46:39;;;;;;;15.07;13.82;;;19.10;69.50;;;;;;4995392;28;20186;-87
2023/06/18 04:49:05;;;;;;;15.23;13.80;;;19.10;69.60;;;;;;4995448;28;20175;-86
2023/06/18 04:51:31;;;;;;;14.73;13.75;;;19.10;70.00;;;;;;4994606;28;20200;-88
2023/06/18 04:53:56;;;;;;;14.77;13.73;;;19.20;69.30;;;;;;4991566;28;20249;-88
2023/06/18 04:56:22;;;;;;;15.10;13.90;;;19.20;69.30;;;;;;4994970;28;20184;-88
2023/06/18 04:58:47;;;;;;;14.30;13.18;;;19.30;69.30;;;;;;4993945;28;20186;-87
2023/06/18 05:01:14;;;;;;;13.88;12.77;;;19.10;70.00;;;;;;4995160;28;20178;-87
2023/06/18 05:03:39;;;;;;;14.40;13.32;;;19.10;70.00;;;;;;4993453;28;20606;-87
2023/06/18 05:06:05;;;;;;;14.65;13.55;;;19.10;70.40;;;;;;4995857;28;20202;-88
2023/06/18 05:08:31;;;;;;;15.00;14.00;;;19.10;70.80;;;;;;4984610;28;20183;-87
2023/06/18 05:10:57;;;;;;;15.68;14.50;;;19.20;71.10;;;;;;4975688;28;20187;-87
2023/06/18 05:13:23;;;;;;;14.90;13.85;;;19.20;71.60;;;;;;4975035;28;20224;-88
2023/06/18 05:15:48;;;;;;;14.77;13.43;;;19.20;71.50;;;;;;4976442;28;20184;-87
2023/06/18 05:18:14;;;;;;;14.68;13.68;;;19.20;71.50;;;;;;4994352;28;20206;-88
2023/06/18 05:20:40;;;;;;;15.57;14.27;;;19.30;71.60;;;;;;4995909;28;20837;-88
2023/06/18 05:23:05;;;;;;;14.85;13.75;;;19.40;71.40;;;;;;4994491;28;20235;-87
2023/06/18 05:25:33;;;;;;;15.23;14.27;;;19.40;68.90;;;;;;4993593;28;21005;-88
2023/06/18 05:27:59;;;;;;;14.20;13.00;;;19.40;65.90;;;;;;4991825;28;20187;-87
2023/06/18 05:30:24;;;;;;;14.68;13.43;;;19.40;65.70;;;;;;4991892;28;20182;-87
2023/06/18 05:32:50;;;;;;;14.93;13.73;;;19.40;67.30;;;;;;4990934;28;20265;-89
2023/06/18 05:35:16;;;;;;;14.48;13.48;;;19.30;67.70;;;;;;4990666;28;20210;-87
2023/06/18 05:37:41;;;;;;;14.88;13.77;;;19.20;67.50;;;;;;4992026;28;20179;-88
2023/06/18 05:40:08;;;;;;;14.10;13.15;;;19.30;69.10;;;;;;4993620;28;20233;-88
2023/06/18 05:42:33;;;;;;;14.77;13.75;;;19.40;69.80;;;;;;4995264;28;20195;-87
2023/06/18 05:44:59;;;;;;;14.57;13.38;;;19.50;69.80;;;;;;4998859;28;20185;-88
2023/06/18 05:47:25;;;;;;;15.32;14.15;;;19.60;68.90;;;;;;4997379;28;20700;-88
2023/06/18 05:49:50;;;;;;;15.85;14.55;;;19.60;69.60;;;;;;4998830;28;20194;-88
2023/06/18 05:52:16;;;;;;;16.52;15.00;;;19.70;69.70;;;;;;4996697;28;20314;-87
2023/06/18 05:54:41;;;;;;;15.75;14.43;;;19.70;70.10;;;;;;4998347;28;20206;-89
2023/06/18 05:57:07;;;;;;;15.70;14.25;;;19.70;70.60;;;;;;4998147;28;20202;-87
2023/06/18 05:59:33;;;;;;;16.05;14.95;;;19.60;72.10;;;;;;4998714;28;20190;-88
2023/06/18 06:01:59;;;;;;;17.23;15.80;;;19.70;71.40;;;;;;4996774;28;20285;-88
2023/06/18 06:04:24;;;;;;;16.05;14.95;;;19.70;71.00;;;;;;4997464;28;20341;-87
2023/06/18 06:06:50;;;;;;;16.10;14.90;;;19.80;70.90;;;;;;4997955;28;20201;-89
2023/06/18 06:09:16;;;;;;;15.45;14.35;;;19.80;71.30;;;;;;4982255;28;20238;-88
2023/06/18 06:11:42;;;;;;;17.15;15.85;;;19.80;71.30;;;;;;4979245;28;20210;-86
2023/06/18 06:14:07;;;;;;;16.60;15.40;;;19.90;70.50;;;;;;4978227;28;20203;-87
2023/06/18 06:16:33;;;;;;;15.90;14.57;;;20.00;69.60;;;;;;4979039;28;20177;-88
2023/06/18 06:18:59;;;;;;;14.75;13.65;;;20.10;68.80;;;;;;4998048;28;20175;-88
2023/06/18 06:21:25;;;;;;;17.00;15.80;;;20.20;67.30;;;;;;4995845;28;20182;-89
2023/06/18 06:23:51;;;;;;;16.02;14.82;;;20.40;66.00;;;;;;4994699;28;20726;-86
2023/06/18 06:26:17;;;;;;;16.30;15.20;;;20.50;66.10;;;;;;4995134;28;20186;-84
2023/06/18 06:28:42;;;;;;;17.13;15.73;;;20.60;65.20;;;;;;4997673;28;20662;-83
2023/06/18 06:31:08;;;;;;;16.42;15.23;;;20.70;64.50;;;;;;4997250;28;20287;-85
2023/06/18 06:33:34;;;;;;;16.90;15.60;;;20.70;64.30;;;;;;4998739;28;20206;-83
2023/06/18 06:35:59;;;;;;;17.15;16.02;;;20.90;64.40;;;;;;4997155;28;20190;-86
2023/06/18 06:38:25;;;;;;;17.92;16.42;;;20.90;62.50;;;;;;4997365;28;20188;-85
2023/06/18 06:40:51;;;;;;;16.90;15.48;;;21.00;62.90;;;;;;5000927;28;20188;-85
2023/06/18 06:43:16;;;;;;;16.70;15.50;;;21.10;64.30;;;;;;4998941;28;20310;-86
2023/06/18 06:45:42;;;;;;;16.52;15.32;;;21.10;64.60;;;;;;5002304;28;20329;-83
2023/06/18 06:48:08;;;;;;;16.55;15.50;;;21.30;65.10;;;;;;5001967;28;20176;-85
2023/06/18 06:50:33;;;;;;;17.85;16.65;;;21.40;64.20;;;;;;5000360;28;20587;-84
2023/06/18 06:52:59;;;;;;;19.23;17.30;;;21.40;63.90;;;;;;5001514;28;20215;-85
2023/06/18 06:55:25;;;;;;;18.08;16.77;;;21.50;63.50;;;;;;5002751;28;20217;-84
2023/06/18 06:57:50;;;;;;;17.27;16.08;;;21.70;63.60;;;;;;5001889;28;20260;-84
2023/06/18 07:00:16;;;;;;;17.77;16.55;;;21.80;63.20;;;;;;4998656;28;20650;-84
2023/06/18 07:02:42;;;;;;;19.30;17.52;;;22.00;62.70;;;;;;5000613;28;20260;-82
2023/06/18 07:05:09;;;;;;;19.63;18.30;;;22.00;61.30;;;;;;5001068;28;20175;-85
2023/06/18 07:07:35;;;;;;;18.50;17.13;;;22.20;60.70;;;;;;4998299;28;20281;-83
2023/06/18 07:10:02;;;;;;;19.23;17.92;;;22.20;59.00;;;;;;5006447;28;20186;-84
2023/06/18 07:12:28;;;;;;;20.17;18.63;;;22.30;60.50;;;;;;5013449;28;20204;-84
2023/06/18 07:14:54;;;;;;;20.35;18.80;;;22.50;60.20;;;;;;5000088;28;20270;-84
2023/06/18 07:17:26;;;;;;;20.02;18.58;;;22.60;59.40;;;;;;5000809;28;20197;-82
2023/06/18 07:19:52;;;;;;;19.23;17.92;;;22.60;58.60;;;;;;4981162;28;20545;-84
2023/06/18 07:22:18;;;;;;;20.67;18.83;;;22.80;58.60;;;;;;4988258;28;20206;-85
2023/06/18 07:24:44;;;;;;;20.35;18.75;;;22.90;57.00;;;;;;4996051;28;20178;-86
2023/06/18 07:27:10;;;;;;;19.90;18.45;;;23.10;57.50;;;;;;4996577;28;20178;-84
2023/06/18 07:29:35;;;;;;;19.98;18.50;;;23.20;55.60;;;;;;4998336;28;20253;-85
2023/06/18 07:32:01;;;;;;;19.80;18.40;;;23.30;56.10;;;;;;5001740;28;20217;-86
2023/06/18 07:34:26;;;;;;;20.70;19.08;;;23.50;54.20;;;;;;4997782;28;20214;-84
2023/06/18 07:36:52;;;;;;;19.95;18.55;;;23.50;54.20;;;;;;5000331;28;20174;-84
2023/06/18 07:39:18;;;;;;;18.42;17.23;;;23.60;53.30;;;;;;4999432;28;20224;-84
2023/06/18 07:41:47;;;;;;;18.80;17.50;;;23.70;53.10;;;;;;4997138;28;20194;-82
2023/06/18 07:44:14;;;;;;;18.95;17.35;;;23.80;53.00;;;;;;4998272;28;20270;-82
2023/06/18 07:46:42;;;;;;;18.23;16.92;;;23.70;52.80;;;;;;4997830;28;20309;-83
2023/06/18 07:49:08;;;;;;;18.73;17.35;;;23.80;53.00;;;;;;4984287;28;20183;-85
2023/06/18 07:51:34;;;;;;;18.15;16.83;;;23.80;53.50;;;;;;4999462;28;20644;-85
2023/06/18 07:54:00;;;;;;;18.08;16.77;;;23.90;53.30;;;;;;4982275;28;20233;-85
2023/06/18 07:56:26;;;;;;;18.83;17.35;;;24.10;54.10;;;;;;4978985;28;20248;-84
2023/06/18 07:58:52;;;;;;;19.08;17.77;;;24.30;53.90;;;;;;4980572;28;20616;-85
2023/06/18 08:01:18;;;;;;;20.42;19.13;;;24.50;51.00;;;;;;4981592;28;20179;-84
2023/06/18 08:03:44;;;;;;;20.38;18.83;;;24.60;48.50;;;;;;4980149;28;20187;-86
2023/06/18 08:06:10;;;;;;;22.08;20.60;;;24.70;48.20;;;;;;4984633;28;20209;-84
2023/06/18 08:08:36;;;;;;;21.88;20.50;;;24.80;46.20;;;;;;4993245;28;20198;-85
2023/06/18 08:11:01;;;;;;;20.83;19.52;;;25.00;47.10;;;;;;5000331;28;20260;-84
2023/06/18 08:13:27;;;;;;;23.45;21.88;;;25.10;48.00;;;;;;5000557;28;20198;-84
2023/06/18 08:15:53;;;;;;;23.10;21.70;;;25.40;46.40;;;;;;5001433;28;20190;-84
2023/06/18 08:18:18;;;;;;;23.65;22.25;;;25.50;47.10;;;;;;5001396;28;20182;-85
2023/06/18 08:20:44;;;;;;;24.10;22.45;;;25.60;46.70;;;;;;5000722;28;20190;-85
2023/06/18 08:23:10;;;;;;;24.02;22.23;;;25.60;44.80;;;;;;4999682;28;20218;-85
2023/06/18 08:25:36;;;;;;;22.17;20.50;;;25.60;49.30;;;;;;4998584;28;20222;-84
2023/06/18 08:28:03;;;;;;;21.10;19.73;;;25.40;52.70;;;;;;4996774;28;20606;-82
2023/06/18 08:30:28;;;;;;;21.25;19.75;;;25.10;53.50;;;;;;4995792;28;20183;-84
2023/06/18 08:32:57;;;;;;;30.05;20.40;;;25.20;52.40;;;;;;4995142;28;20286;-81
2023/06/18 08:35:23;;;;;;;21.65;19.98;;;25.20;52.90;;;;;;4998560;28;20203;-83
2023/06/18 08:37:48;;;;;;;23.17;21.45;;;25.20;52.80;;;;;;4996416;28;20191;-83
2023/06/18 08:40:14;;;;;;;22.80;21.35;;;25.50;51.10;;;;;;4999009;28;20199;-83
2023/06/18 08:42:41;;;;;;;23.50;22.00;;;25.70;49.60;;;;;;4999184;28;20202;-83
2023/06/18 08:45:07;;;;;;;24.58;23.02;;;25.80;48.90;;;;;;4981861;28;20182;-82
2023/06/18 08:47:34;;;;;;;22.58;21.08;;;25.80;47.90;;;;;;4979643;28;20319;-84
2023/06/18 08:50:00;;;;;;;21.63;20.30;;;25.90;49.20;;;;;;4991734;28;20182;-84
2023/06/18 08:52:29;;;;;;;23.27;21.80;;;26.00;50.00;;;;;;4998954;28;20209;-84
2023/06/18 08:54:57;;;;;;;24.17;22.83;;;26.20;47.30;;;;;;4988778;28;20251;-83
2023/06/18 08:57:39;;;;;;;24.80;23.20;;;26.30;46.60;;;;;;4978983;28;20193;-83
2023/06/18 09:00:08;;;;;;;24.77;23.30;;;26.50;46.60;;;;;;4981180;28;20186;-83
2023/06/18 09:02:34;;;;;;;26.23;24.83;;;26.50;46.50;;;;;;4982299;28;20275;-84
2023/06/18 09:05:04;;;;;;;26.73;25.23;;;26.60;44.70;;;;;;4987994;28;20245;-82
2023/06/18 09:07:30;;;;;;;25.88;24.45;;;26.70;43.10;;;;;;4989287;28;20218;-83
2023/06/18 09:09:56;;;;;;;26.63;25.02;;;26.90;42.90;;;;;;4977478;28;20246;-82
2023/06/18 09:12:21;;;;;;;25.38;24.05;;;27.00;44.00;;;;;;4978886;28;20714;-83
2023/06/18 09:14:47;;;;;;;27.13;25.48;;;27.10;43.70;;;;;;4993308;28;20206;-82
2023/06/18 09:17:13;;;;;;;26.00;24.70;;;27.30;42.00;;;;;;4991279;28;20190;-83
2023/06/18 09:19:42;;;;;;;27.00;25.40;;;27.50;42.40;;;;;;4994124;28;20182;-82
2023/06/18 09:22:16;;;;;;;27.48;25.88;;;27.70;41.50;;;;;;4997758;28;20654;-87
2023/06/18 09:24:43;;;;;;;26.17;24.48;;;27.80;41.70;;;;;;4996833;28;20248;-85
2023/06/18 09:27:09;;;;;;;26.48;24.73;;;27.90;41.80;;;;;;4988792;28;20187;-83
2023/06/18 09:29:37;;;;;;;25.15;23.80;;;27.80;36.30;;;;;;4978542;28;20575;-84
2023/06/18 09:32:29;;;;;;;25.58;24.27;;;27.90;36.30;;;;;;4990868;28;20218;-86
2023/06/18 09:34:54;;;;;;;25.80;24.48;;;27.90;36.20;;;;;;4995305;28;20217;-84
2023/06/18 09:37:20;;;;;;;22.50;20.90;;;28.20;38.40;;;;;;5000337;28;20178;-84
2023/06/18 09:39:46;;;;;;;23.25;21.75;;;28.40;29.90;;;;;;4999440;28;20175;-84
2023/06/18 09:42:13;;;;;;;25.60;24.10;;;28.40;30.80;;;;;;4997211;28;20725;-85
2023/06/18 09:44:43;;;;;;;27.88;26.38;;;28.50;33.40;;;;;;4999215;28;20186;-85
2023/06/18 09:47:12;;;;;;;28.05;26.63;;;28.70;33.70;;;;;;4998315;28;20273;-85
2023/06/18 09:49:40;;;;;;;28.90;27.25;;;28.80;34.00;;;;;;4999014;28;20182;-85
2023/06/18 09:52:09;;;;;;;28.50;27.10;;;28.70;34.40;;;;;;4998234;28;20279;-84
2023/06/18 09:54:41;;;;;;;29.98;28.50;;;29.10;33.80;;;;;;4999259;28;20209;-85
2023/06/18 09:57:09;;;;;;;28.00;26.70;;;29.20;34.80;;;;;;4998568;28;20702;-85
2023/06/18 09:59:36;;;;;;;27.70;26.08;;;29.70;33.70;;;;;;4997890;28;20186;-84
2023/06/18 10:02:03;;;;;;;25.55;24.10;;;29.90;33.20;;;;;;4998838;28;20221;-86
2023/06/18 10:04:29;;;;;;;26.02;24.52;;;30.00;32.40;;;;;;4997805;28;20388;-84
2023/06/18 10:07:00;;;;;;;25.20;23.92;;;30.20;32.40;;;;;;4997538;28;20200;-87
2023/06/18 10:09:40;;;;;;;24.50;23.10;;;30.40;32.30;;;;;;4982343;28;20195;-87
2023/06/18 10:12:06;;;;;;;24.58;23.27;;;30.40;31.00;;;;;;4989340;28;20202;-85
2023/06/18 10:14:33;;;;;;;23.85;22.55;;;30.20;31.20;;;;;;4978795;28;20337;-85
2023/06/18 10:17:05;;;;;;;24.17;22.98;;;30.50;31.80;;;;;;4976414;28;21305;-88
2023/06/18 10:19:37;;;;;;;24.80;23.48;;;30.80;30.50;;;;;;4983380;28;20192;-86
2023/06/18 10:22:03;;;;;;;25.48;24.17;;;31.10;31.40;;;;;;4983222;28;20206;-86
2023/06/18 10:24:58;;;;;;;25.52;24.23;;;31.40;30.10;;;;;;4977629;28;20277;-85
2023/06/18 10:27:24;;;;;;;28.38;26.98;;;31.50;30.20;;;;;;4975838;28;20206;-85
2023/06/18 10:29:50;;;;;;;29.02;27.38;;;31.60;29.20;;;;;;4982073;28;20222;-86
2023/06/18 10:32:17;;;;;;;27.83;26.50;;;31.40;28.90;;;;;;4979784;28;20214;-86
2023/06/18 10:34:43;;;;;;;29.35;27.90;;;31.50;29.50;;;;;;4980572;28;20260;-86
2023/06/18 10:37:11;;;;;;;32.53;31.05;;;31.90;28.90;;;;;;4982379;28;20178;-86
2023/06/18 10:39:37;;;;;;;31.25;29.50;;;32.00;28.50;;;;;;4985178;28;20225;-85
2023/06/18 10:42:16;;;;;;;32.47;31.08;;;32.10;28.50;;;;;;4981683;28;20211;-85
2023/06/18 10:44:48;;;;;;;31.83;30.23;;;32.30;28.10;;;;;;4974876;28;20190;-86
2023/06/18 10:47:31;;;;;;;33.60;31.90;;;32.40;28.30;;;;;;4977434;28;20222;-86
2023/06/18 10:50:00;;;;;;;34.10;32.50;;;32.60;27.90;;;;;;4977188;28;20241;-85
2023/06/18 10:52:27;;;;;;;40.72;38.85;;;32.80;27.80;;;;;;4979725;28;20202;-85
2023/06/18 10:55:16;;;;;;;40.08;38.47;;;32.90;27.40;;;;;;4977763;28;20210;-87
2023/06/18 10:57:43;;;;;;;41.83;40.00;;;33.00;27.30;;;;;;4971065;28;20194;-88
2023/06/18 11:00:15;;;;;;;42.25;40.35;;;33.30;27.00;;;;;;4976436;28;20190;-86
2023/06/18 11:02:41;;;;;;;40.38;38.55;;;33.10;26.80;;;;;;4978029;28;20220;-84
2023/06/18 11:05:07;;;;;;;37.97;36.45;;;33.10;26.80;;;;;;4983279;28;20173;-85
2023/06/18 11:07:32;;;;;;;40.15;38.47;;;33.10;25.90;;;;;;4981583;28;20204;-85
2023/06/18 11:10:01;;;;;;;40.22;38.50;;;33.00;26.50;;;;;;4982695;28;20190;-86
2023/06/18 11:12:30;;;;;;;39.78;37.80;;;33.00;26.80;;;;;;4979843;28;20213;-85
2023/06/18 11:15:18;;;;;;;38.63;36.83;;;33.30;26.00;;;;;;4981716;28;20276;-86
2023/06/18 11:17:50;;;;;;;36.83;35.10;;;33.50;25.20;;;;;;4979242;28;20222;-86
2023/06/18 11:20:24;;;;;;;37.50;35.97;;;33.60;24.70;;;;;;4982402;28;20178;-85
2023/06/18 11:22:55;;;;;;;34.28;32.78;;;33.90;24.70;;;;;;4980691;28;20353;-88
2023/06/18 11:25:23;;;;;;;34.33;32.42;;;34.30;23.50;;;;;;4983856;28;20190;-88
2023/06/18 11:27:50;;;;;;;33.22;31.73;;;34.40;22.90;;;;;;4982738;28;20196;-89
2023/06/18 11:30:25;;;;;;;33.47;32.10;;;34.60;23.40;;;;;;4984708;28;20679;-91
2023/06/18 11:32:51;;;;;;;31.85;30.45;;;34.40;22.80;;;;;;4980746;28;20269;-88
2023/06/18 11:35:16;;;;;;;31.63;30.42;;;34.40;22.70;;;;;;4983341;28;20297;-88
2023/06/18 11:37:43;;;;;;;33.35;32.05;;;34.50;23.20;;;;;;4981748;28;20696;-89
2023/06/18 11:40:10;;;;;;;32.92;31.52;;;34.50;22.60;;;;;;4983387;28;20174;-86
2023/06/18 11:42:46;;;;;;;34.47;32.88;;;34.90;22.70;;;;;;4978583;28;20285;-87
2023/06/18 11:45:12;;;;;;;33.72;32.33;;;34.80;21.90;;;;;;4980936;28;20182;-89
2023/06/18 11:47:52;;;;;;;33.92;32.05;;;35.00;22.60;;;;;;4980041;28;20202;-86
2023/06/18 11:50:57;;;;;;;34.45;33.05;;;35.00;22.70;;;;;;4983324;28;20207;-90
2023/06/18 11:56:46;;;;;;;38.88;37.25;;;35.50;22.10;;;;;;4980573;28;20434;-91
2023/06/18 11:59:16;;;;;;;41.10;39.50;;;36.00;22.30;;;;;;4983075;28;20502;-87
2023/06/18 12:02:37;;;;;;;38.83;37.33;;;36.10;21.30;;;;;;4980805;28;20205;-89
2023/06/18 12:05:11;;;;;;;37.90;36.38;;;36.60;22.20;;;;;;4953069;28;20183;-87
2023/06/18 12:07:42;;;;;;;43.40;41.67;;;36.90;21.80;;;;;;5000249;28;20188;-89
2023/06/18 12:10:12;;;;;;;44.58;42.58;;;37.00;21.20;;;;;;4980958;28;20182;-89
2023/06/18 12:13:09;;;;;;;42.55;40.95;;;36.70;20.60;;;;;;4976042;28;20304;-90
2023/06/18 12:16:06;;;;;;;42.53;40.55;;;36.70;21.30;;;;;;4982855;28;20209;-88
2023/06/18 12:18:41;;;;;;;45.30;43.65;;;36.80;21.20;;;;;;4970806;28;20612;-89
2023/06/18 12:21:07;;;;;;;47.13;45.10;;;36.70;21.40;;;;;;4979304;28;20272;-89
2023/06/18 12:23:37;;;;;;;45.65;43.55;;;36.40;22.00;;;;;;4980666;28;20325;-89
2023/06/18 12:26:03;;;;;;;45.38;43.58;;;36.50;21.30;;;;;;4983539;28;20265;-89
2023/06/18 12:28:33;;;;;;;45.45;43.80;;;36.50;21.40;;;;;;4981685;28;20197;-90
2023/06/18 12:31:07;;;;;;;47.63;45.30;;;36.50;21.40;;;;;;4981099;28;20177;-90
2023/06/18 12:33:44;;;;;;;47.22;45.42;;;36.40;20.90;;;;;;4980909;28;20237;-90
2023/06/18 12:36:10;;;;;;;46.63;44.92;;;36.70;21.40;;;;;;4982577;28;20177;-90